sensor_id;sensor_type;location;lat;lon;timestamp;P1;durP1;ratioP1;P2;durP2;ratioP2
53757;SDS011;39674;59.860;30.672;2023-05-02T00:03:47;1999.90;;;999.90;;
53757;SDS011;39674;59.860;30.672;2023-05-02T00:06:18;1999.90;;;999.90;;
53757;SDS011;39674;59.860;30.672;2023-05-02T00:08:56;1999.90;;;999.90;;
53757;SDS011;39674;59.860;30.672;2023-05-02T00:11:47;1999.90;;;999.90;;
53757;SDS011;39674;59.860;30.672;2023-05-02T00:14:42;1999.90;;;999.90;;
53757;SDS011;39674;59.860;30.672;2023-05-02T00:17:42;1999.90;;;999.90;;
53757;SDS011;39674;59.860;30.672;2023-05-02T00:20:34;1999.90;;;999.90;;
53757;SDS011;39674;59.860;30.672;2023-05-02T00:23:21;1999.90;;;999.90;;
53757;SDS011;39674;59.860;30.672;2023-05-02T00:26:07;1999.90;;;999.90;;
53757;SDS011;39674;59.860;30.672;2023-05-02T00:28:52;1852.78;;;384.55;;
53757;SDS011;39674;59.860;30.672;2023-05-02T00:31:37;1999.90;;;827.38;;
53757;SDS011;39674;59.860;30.672;2023-05-02T00:34:16;1999.90;;;999.90;;
53757;SDS011;39674;59.860;30.672;2023-05-02T00:36:49;1999.90;;;999.90;;
53757;SDS011;39674;59.860;30.672;2023-05-02T00:39:20;1999.90;;;999.90;;
53757;SDS011;39674;59.860;30.672;2023-05-02T00:42:04;1999.90;;;999.90;;
53757;SDS011;39674;59.860;30.672;2023-05-02T00:44:43;1999.90;;;999.90;;
53757;SDS011;39674;59.860;30.672;2023-05-02T00:47:16;1999.90;;;999.90;;
53757;SDS011;39674;59.860;30.672;2023-05-02T00:49:49;1999.90;;;999.90;;
53757;SDS011;39674;59.860;30.672;2023-05-02T00:52:40;1999.90;;;999.90;;
53757;SDS011;39674;59.860;30.672;2023-05-02T00:55:16;1999.90;;;999.90;;
53757;SDS011;39674;59.860;30.672;2023-05-02T00:57:48;1999.90;;;999.90;;
53757;SDS011;39674;59.860;30.672;2023-05-02T01:00:24;1999.90;;;999.90;;
53757;SDS011;39674;59.860;30.672;2023-05-02T01:03:19;1941.70;;;999.90;;
53757;SDS011;39674;59.860;30.672;2023-05-02T01:06:01;1407.32;;;999.90;;
53757;SDS011;39674;59.860;30.672;2023-05-02T01:08:44;1884.30;;;999.90;;
53757;SDS011;39674;59.860;30.672;2023-05-02T01:11:33;1631.70;;;999.90;;
53757;SDS011;39674;59.860;30.672;2023-05-02T01:14:19;1501.07;;;999.90;;
53757;SDS011;39674;59.860;30.672;2023-05-02T01:16:57;1999.90;;;999.90;;
53757;SDS011;39674;59.860;30.672;2023-05-02T01:19:46;1279.57;;;999.90;;
53757;SDS011;39674;59.860;30.672;2023-05-02T01:22:29;1362.70;;;999.90;;
53757;SDS011;39674;59.860;30.672;2023-05-02T01:25:23;1322.03;;;999.90;;
53757;SDS011;39674;59.860;30.672;2023-05-02T01:28:13;1166.97;;;999.90;;
53757;SDS011;39674;59.860;30.672;2023-05-02T01:30:56;1176.45;;;999.90;;
53757;SDS011;39674;59.860;30.672;2023-05-02T01:33:43;1170.32;;;999.90;;
53757;SDS011;39674;59.860;30.672;2023-05-02T01:36:18;1353.18;;;999.90;;
53757;SDS011;39674;59.860;30.672;2023-05-02T01:41:34;1738.20;;;999.90;;
53757;SDS011;39674;59.860;30.672;2023-05-02T01:44:06;1199.25;;;999.90;;
53757;SDS011;39674;59.860;30.672;2023-05-02T01:46:43;1058.78;;;959.20;;
53757;SDS011;39674;59.860;30.672;2023-05-02T01:49:13;1078.47;;;974.63;;
53757;SDS011;39674;59.860;30.672;2023-05-02T01:51:44;1205.13;;;999.90;;
53757;SDS011;39674;59.860;30.672;2023-05-02T01:54:31;1147.38;;;999.90;;
53757;SDS011;39674;59.860;30.672;2023-05-02T01:57:08;1407.45;;;999.90;;
53757;SDS011;39674;59.860;30.672;2023-05-02T01:59:39;1064.00;;;969.33;;
53757;SDS011;39674;59.860;30.672;2023-05-02T02:02:19;1175.22;;;999.90;;
53757;SDS011;39674;59.860;30.672;2023-05-02T02:04:54;964.95;;;881.72;;
53757;SDS011;39674;59.860;30.672;2023-05-02T02:07:27;1640.70;;;999.90;;
53757;SDS011;39674;59.860;30.672;2023-05-02T02:09:59;1003.38;;;918.38;;
53757;SDS011;39674;59.860;30.672;2023-05-02T02:12:35;806.40;;;739.42;;
53757;SDS011;39674;59.860;30.672;2023-05-02T02:15:20;973.45;;;883.33;;
53757;SDS011;39674;59.860;30.672;2023-05-02T02:18:08;922.95;;;848.92;;
53757;SDS011;39674;59.860;30.672;2023-05-02T02:21:04;975.28;;;893.88;;
53757;SDS011;39674;59.860;30.672;2023-05-02T02:23:37;979.33;;;884.03;;
53757;SDS011;39674;59.860;30.672;2023-05-02T02:26:14;1012.67;;;924.70;;
53757;SDS011;39674;59.860;30.672;2023-05-02T02:28:51;931.88;;;852.35;;
53757;SDS011;39674;59.860;30.672;2023-05-02T02:31:24;887.70;;;816.15;;
53757;SDS011;39674;59.860;30.672;2023-05-02T02:34:06;1158.00;;;999.90;;
53757;SDS011;39674;59.860;30.672;2023-05-02T02:36:43;683.90;;;626.13;;
53757;SDS011;39674;59.860;30.672;2023-05-02T02:39:20;719.00;;;658.05;;
53757;SDS011;39674;59.860;30.672;2023-05-02T02:42:10;946.00;;;860.33;;
53757;SDS011;39674;59.860;30.672;2023-05-02T02:44:54;810.33;;;743.15;;
53757;SDS011;39674;59.860;30.672;2023-05-02T02:47:40;540.67;;;498.10;;
53757;SDS011;39674;59.860;30.672;2023-05-02T02:50:26;658.63;;;604.50;;
53757;SDS011;39674;59.860;30.672;2023-05-02T02:53:05;834.95;;;768.67;;
53757;SDS011;39674;59.860;30.672;2023-05-02T02:55:44;679.72;;;622.42;;
53757;SDS011;39674;59.860;30.672;2023-05-02T02:58:19;909.03;;;834.93;;
53757;SDS011;39674;59.860;30.672;2023-05-02T03:01:00;613.45;;;563.05;;
53757;SDS011;39674;59.860;30.672;2023-05-02T03:03:34;488.13;;;448.15;;
53757;SDS011;39674;59.860;30.672;2023-05-02T03:06:08;922.60;;;845.70;;
53757;SDS011;39674;59.860;30.672;2023-05-02T03:08:55;530.40;;;487.63;;
53757;SDS011;39674;59.860;30.672;2023-05-02T03:11:28;632.08;;;578.20;;
53757;SDS011;39674;59.860;30.672;2023-05-02T03:14:03;523.85;;;480.48;;
53757;SDS011;39674;59.860;30.672;2023-05-02T03:16:52;671.45;;;616.33;;
53757;SDS011;39674;59.860;30.672;2023-05-02T03:19:34;828.20;;;758.22;;
53757;SDS011;39674;59.860;30.672;2023-05-02T03:22:11;663.35;;;610.65;;
53757;SDS011;39674;59.860;30.672;2023-05-02T03:24:52;597.42;;;549.05;;
53757;SDS011;39674;59.860;30.672;2023-05-02T03:27:23;488.75;;;449.52;;
53757;SDS011;39674;59.860;30.672;2023-05-02T03:30:00;646.25;;;593.15;;
53757;SDS011;39674;59.860;30.672;2023-05-02T03:32:33;691.38;;;632.20;;
53757;SDS011;39674;59.860;30.672;2023-05-02T03:35:03;577.85;;;530.00;;
53757;SDS011;39674;59.860;30.672;2023-05-02T03:37:45;505.73;;;463.90;;
53757;SDS011;39674;59.860;30.672;2023-05-02T03:40:36;458.70;;;420.50;;
53757;SDS011;39674;59.860;30.672;2023-05-02T03:43:09;483.73;;;444.75;;
53757;SDS011;39674;59.860;30.672;2023-05-02T03:45:41;464.50;;;427.73;;
53757;SDS011;39674;59.860;30.672;2023-05-02T03:48:21;598.42;;;547.28;;
53757;SDS011;39674;59.860;30.672;2023-05-02T03:50:56;731.05;;;668.53;;
53757;SDS011;39674;59.860;30.672;2023-05-02T03:53:48;862.42;;;788.53;;
53757;SDS011;39674;59.860;30.672;2023-05-02T03:56:42;700.35;;;643.35;;
53757;SDS011;39674;59.860;30.672;2023-05-02T03:59:24;416.00;;;382.45;;
53757;SDS011;39674;59.860;30.672;2023-05-02T04:01:55;1060.88;;;961.55;;
53757;SDS011;39674;59.860;30.672;2023-05-02T04:05:04;454.10;;;417.67;;
53757;SDS011;39674;59.860;30.672;2023-05-02T04:07:37;725.80;;;665.25;;
53757;SDS011;39674;59.860;30.672;2023-05-02T04:10:10;770.60;;;706.20;;
53757;SDS011;39674;59.860;30.672;2023-05-02T04:12:52;453.25;;;416.75;;
53757;SDS011;39674;59.860;30.672;2023-05-02T04:15:47;567.13;;;520.92;;
53757;SDS011;39674;59.860;30.672;2023-05-02T04:18:39;465.80;;;427.88;;
53757;SDS011;39674;59.860;30.672;2023-05-02T04:21:17;931.60;;;851.35;;
53757;SDS011;39674;59.860;30.672;2023-05-02T04:24:02;482.42;;;443.13;;
53757;SDS011;39674;59.860;30.672;2023-05-02T04:34:27;679.28;;;623.95;;
53757;SDS011;39674;59.860;30.672;2023-05-02T04:37:38;429.35;;;396.73;;
53757;SDS011;39674;59.860;30.672;2023-05-02T04:41:04;953.67;;;854.63;;
53757;SDS011;39674;59.860;30.672;2023-05-02T04:44:09;877.72;;;804.55;;
53757;SDS011;39674;59.860;30.672;2023-05-02T04:46:47;1041.05;;;945.38;;
53757;SDS011;39674;59.860;30.672;2023-05-02T04:49:20;521.97;;;477.98;;
53757;SDS011;39674;59.860;30.672;2023-05-02T04:52:09;471.83;;;432.75;;
53757;SDS011;39674;59.860;30.672;2023-05-02T04:54:39;456.85;;;418.63;;
53757;SDS011;39674;59.860;30.672;2023-05-02T04:57:38;621.65;;;569.47;;
53757;SDS011;39674;59.860;30.672;2023-05-02T05:00:18;657.83;;;601.50;;
53757;SDS011;39674;59.860;30.672;2023-05-02T05:02:53;866.47;;;791.90;;
53757;SDS011;39674;59.860;30.672;2023-05-02T05:05:28;696.75;;;638.28;;
53757;SDS011;39674;59.860;30.672;2023-05-02T05:11:57;960.58;;;877.83;;
53757;SDS011;39674;59.860;30.672;2023-05-02T05:15:09;1589.03;;;999.90;;
53757;SDS011;39674;59.860;30.672;2023-05-02T05:18:04;1512.35;;;999.90;;
53757;SDS011;39674;59.860;30.672;2023-05-02T05:21:07;823.80;;;748.75;;
53757;SDS011;39674;59.860;30.672;2023-05-02T05:24:58;1142.03;;;999.90;;
53757;SDS011;39674;59.860;30.672;2023-05-02T05:28:21;1080.80;;;973.53;;
53757;SDS011;39674;59.860;30.672;2023-05-02T05:31:45;1173.65;;;999.90;;
53757;SDS011;39674;59.860;30.672;2023-05-02T05:42:04;1779.82;;;999.90;;
53757;SDS011;39674;59.860;30.672;2023-05-02T05:44:43;1434.30;;;999.90;;
53757;SDS011;39674;59.860;30.672;2023-05-02T05:48:35;1208.05;;;999.90;;
53757;SDS011;39674;59.860;30.672;2023-05-02T05:50:37;1388.78;;;999.90;;
53757;SDS011;39674;59.860;30.672;2023-05-02T05:54:27;1999.90;;;999.90;;
53757;SDS011;39674;59.860;30.672;2023-05-02T05:57:26;1835.40;;;999.90;;
53757;SDS011;39674;59.860;30.672;2023-05-02T06:00:29;1999.90;;;999.90;;
53757;SDS011;39674;59.860;30.672;2023-05-02T06:03:16;1999.90;;;999.90;;
53757;SDS011;39674;59.860;30.672;2023-05-02T06:06:00;1999.90;;;999.90;;
53757;SDS011;39674;59.860;30.672;2023-05-02T06:08:39;1999.90;;;999.90;;
53757;SDS011;39674;59.860;30.672;2023-05-02T06:15:22;1999.90;;;999.90;;
53757;SDS011;39674;59.860;30.672;2023-05-02T06:18:32;1999.90;;;999.90;;
53757;SDS011;39674;59.860;30.672;2023-05-02T06:21:27;1999.90;;;796.78;;
53757;SDS011;39674;59.860;30.672;2023-05-02T06:24:18;1999.90;;;843.05;;
53757;SDS011;39674;59.860;30.672;2023-05-02T06:27:16;1999.90;;;999.90;;
53757;SDS011;39674;59.860;30.672;2023-05-02T06:29:45;1999.90;;;999.90;;
53757;SDS011;39674;59.860;30.672;2023-05-02T06:32:16;1999.90;;;999.90;;
53757;SDS011;39674;59.860;30.672;2023-05-02T06:34:52;1999.90;;;999.90;;
53757;SDS011;39674;59.860;30.672;2023-05-02T06:37:31;1999.90;;;999.90;;
53757;SDS011;39674;59.860;30.672;2023-05-02T06:40:50;1999.90;;;999.90;;
53757;SDS011;39674;59.860;30.672;2023-05-02T06:43:19;1999.90;;;999.90;;
53757;SDS011;39674;59.860;30.672;2023-05-02T06:46:21;1999.90;;;999.90;;
53757;SDS011;39674;59.860;30.672;2023-05-02T06:49:11;1999.90;;;999.90;;
53757;SDS011;39674;59.860;30.672;2023-05-02T06:52:06;1999.90;;;999.90;;
53757;SDS011;39674;59.860;30.672;2023-05-02T06:54:51;1999.90;;;999.90;;
53757;SDS011;39674;59.860;30.672;2023-05-02T06:58:08;1999.90;;;999.90;;
53757;SDS011;39674;59.860;30.672;2023-05-02T07:01:28;1999.90;;;999.90;;
53757;SDS011;39674;59.860;30.672;2023-05-02T07:04:08;1999.90;;;999.90;;
53757;SDS011;39674;59.860;30.672;2023-05-02T07:07:14;1999.90;;;999.90;;
53757;SDS011;39674;59.860;30.672;2023-05-02T07:10:04;1999.90;;;999.90;;
53757;SDS011;39674;59.860;30.672;2023-05-02T07:12:52;1999.90;;;999.90;;
53757;SDS011;39674;59.860;30.672;2023-05-02T07:15:47;1999.90;;;999.90;;
53757;SDS011;39674;59.860;30.672;2023-05-02T07:18:29;1999.90;;;999.90;;
53757;SDS011;39674;59.860;30.672;2023-05-02T07:21:03;1999.90;;;999.90;;
53757;SDS011;39674;59.860;30.672;2023-05-02T07:24:05;1999.90;;;999.90;;
53757;SDS011;39674;59.860;30.672;2023-05-02T07:26:38;1999.90;;;999.90;;
53757;SDS011;39674;59.860;30.672;2023-05-02T07:29:17;1999.90;;;999.90;;
53757;SDS011;39674;59.860;30.672;2023-05-02T07:31:52;1999.90;;;999.90;;
53757;SDS011;39674;59.860;30.672;2023-05-02T07:34:27;1999.90;;;999.90;;
53757;SDS011;39674;59.860;30.672;2023-05-02T07:37:07;1999.90;;;999.90;;
53757;SDS011;39674;59.860;30.672;2023-05-02T07:39:50;1999.90;;;999.90;;
53757;SDS011;39674;59.860;30.672;2023-05-02T07:42:35;1999.90;;;999.90;;
53757;SDS011;39674;59.860;30.672;2023-05-02T07:45:19;1999.90;;;999.90;;
53757;SDS011;39674;59.860;30.672;2023-05-02T07:48:09;1999.90;;;999.90;;
53757;SDS011;39674;59.860;30.672;2023-05-02T07:54:15;1999.90;;;999.90;;
53757;SDS011;39674;59.860;30.672;2023-05-02T07:57:00;1999.90;;;999.90;;
53757;SDS011;39674;59.860;30.672;2023-05-02T07:59:47;1999.90;;;999.90;;
53757;SDS011;39674;59.860;30.672;2023-05-02T08:02:27;1999.90;;;999.90;;
53757;SDS011;39674;59.860;30.672;2023-05-02T08:05:09;1999.90;;;999.90;;
53757;SDS011;39674;59.860;30.672;2023-05-02T08:08:14;1999.90;;;999.90;;
53757;SDS011;39674;59.860;30.672;2023-05-02T08:11:24;1999.90;;;999.90;;
53757;SDS011;39674;59.860;30.672;2023-05-02T08:14:18;1999.90;;;999.90;;
53757;SDS011;39674;59.860;30.672;2023-05-02T08:17:21;1999.90;;;999.90;;
53757;SDS011;39674;59.860;30.672;2023-05-02T08:20:02;1999.90;;;999.90;;
53757;SDS011;39674;59.860;30.672;2023-05-02T08:22:43;1999.90;;;999.90;;
53757;SDS011;39674;59.860;30.672;2023-05-02T08:25:25;1999.90;;;999.90;;
53757;SDS011;39674;59.860;30.672;2023-05-02T08:28:11;1999.90;;;999.90;;
53757;SDS011;39674;59.860;30.672;2023-05-02T08:30:52;1999.90;;;999.90;;
53757;SDS011;39674;59.860;30.672;2023-05-02T08:33:24;1999.90;;;999.90;;
53757;SDS011;39674;59.860;30.672;2023-05-02T08:35:55;1999.90;;;999.90;;
53757;SDS011;39674;59.860;30.672;2023-05-02T08:39:31;1999.90;;;999.90;;
53757;SDS011;39674;59.860;30.672;2023-05-02T08:42:16;1999.90;;;999.90;;
53757;SDS011;39674;59.860;30.672;2023-05-02T08:47:58;1999.90;;;999.90;;
53757;SDS011;39674;59.860;30.672;2023-05-02T08:50:52;1999.90;;;999.90;;
53757;SDS011;39674;59.860;30.672;2023-05-02T08:53:45;1999.90;;;999.90;;
53757;SDS011;39674;59.860;30.672;2023-05-02T08:56:34;1999.90;;;999.90;;
53757;SDS011;39674;59.860;30.672;2023-05-02T08:59:40;1999.90;;;999.90;;
53757;SDS011;39674;59.860;30.672;2023-05-02T09:02:39;1999.90;;;999.90;;
53757;SDS011;39674;59.860;30.672;2023-05-02T09:05:41;1999.90;;;999.90;;
53757;SDS011;39674;59.860;30.672;2023-05-02T09:08:20;1999.90;;;999.90;;
53757;SDS011;39674;59.860;30.672;2023-05-02T09:12:05;1999.90;;;999.90;;
53757;SDS011;39674;59.860;30.672;2023-05-02T09:15:24;1999.90;;;999.90;;
53757;SDS011;39674;59.860;30.672;2023-05-02T09:19:21;1999.90;;;999.90;;
53757;SDS011;39674;59.860;30.672;2023-05-02T09:42:29;1999.90;;;999.90;;
53757;SDS011;39674;59.860;30.672;2023-05-02T09:46:15;1999.90;;;999.90;;
53757;SDS011;39674;59.860;30.672;2023-05-02T09:50:05;1999.90;;;999.90;;
53757;SDS011;39674;59.860;30.672;2023-05-02T10:01:33;1999.90;;;999.90;;
53757;SDS011;39674;59.860;30.672;2023-05-02T10:09:17;1999.90;;;999.90;;
53757;SDS011;39674;59.860;30.672;2023-05-02T10:15:02;1999.90;;;999.90;;
53757;SDS011;39674;59.860;30.672;2023-05-02T10:21:32;1999.90;;;999.90;;
53757;SDS011;39674;59.860;30.672;2023-05-02T10:24:44;1999.90;;;999.90;;
53757;SDS011;39674;59.860;30.672;2023-05-02T10:40:12;1999.90;;;999.90;;
53757;SDS011;39674;59.860;30.672;2023-05-02T10:44:38;1999.90;;;999.90;;
53757;SDS011;39674;59.860;30.672;2023-05-02T10:53:32;1999.90;;;999.90;;
53757;SDS011;39674;59.860;30.672;2023-05-02T11:15:01;1999.90;;;999.90;;
53757;SDS011;39674;59.860;30.672;2023-05-02T12:43:12;1999.90;;;999.90;;
53757;SDS011;39674;59.860;30.672;2023-05-02T12:46:20;1999.90;;;999.90;;
53757;SDS011;39674;59.860;30.672;2023-05-02T12:49:19;1999.90;;;999.90;;
53757;SDS011;39674;59.860;30.672;2023-05-02T12:59:58;1999.90;;;999.90;;
53757;SDS011;39674;59.860;30.672;2023-05-02T13:11:45;1999.90;;;999.90;;
53757;SDS011;39674;59.860;30.672;2023-05-02T13:22:56;1999.90;;;999.90;;
53757;SDS011;39674;59.860;30.672;2023-05-02T13:57:23;1999.90;;;999.90;;
53757;SDS011;39674;59.860;30.672;2023-05-02T15:40:10;1999.90;;;999.90;;
53757;SDS011;39674;59.860;30.672;2023-05-02T15:50:59;1999.90;;;999.90;;
53757;SDS011;39674;59.860;30.672;2023-05-02T15:54:59;1999.90;;;999.90;;
53757;SDS011;39674;59.860;30.672;2023-05-02T15:57:57;1999.90;;;999.90;;
53757;SDS011;39674;59.860;30.672;2023-05-02T16:01:36;1999.90;;;999.90;;
53757;SDS011;39674;59.860;30.672;2023-05-02T16:12:31;1999.90;;;999.90;;
53757;SDS011;39674;59.860;30.672;2023-05-02T16:16:32;1999.90;;;999.90;;
53757;SDS011;39674;59.860;30.672;2023-05-02T16:20:02;1999.90;;;999.90;;
53757;SDS011;39674;59.860;30.672;2023-05-02T16:23:15;1999.90;;;999.90;;
53757;SDS011;39674;59.860;30.672;2023-05-02T16:29:56;1999.90;;;999.90;;
53757;SDS011;39674;59.860;30.672;2023-05-02T16:33:17;1999.90;;;999.90;;
53757;SDS011;39674;59.860;30.672;2023-05-02T16:37:26;1999.90;;;999.90;;
53757;SDS011;39674;59.860;30.672;2023-05-02T16:49:57;1999.90;;;999.90;;
53757;SDS011;39674;59.860;30.672;2023-05-02T17:20:16;1999.90;;;999.90;;
53757;SDS011;39674;59.860;30.672;2023-05-02T17:23:14;1999.90;;;999.90;;
53757;SDS011;39674;59.860;30.672;2023-05-02T17:26:09;1999.90;;;999.90;;
53757;SDS011;39674;59.860;30.672;2023-05-02T17:32:22;1999.90;;;999.90;;
53757;SDS011;39674;59.860;30.672;2023-05-02T17:34:53;1999.90;;;999.90;;
53757;SDS011;39674;59.860;30.672;2023-05-02T17:37:31;1999.90;;;999.90;;
53757;SDS011;39674;59.860;30.672;2023-05-02T17:40:40;1999.90;;;999.90;;
53757;SDS011;39674;59.860;30.672;2023-05-02T17:43:31;1999.90;;;999.90;;
53757;SDS011;39674;59.860;30.672;2023-05-02T21:36:29;627.53;;;582.72;;
53757;SDS011;39674;59.860;30.672;2023-05-02T22:48:12;1223.18;;;976.80;;
53757;SDS011;39674;59.860;30.672;2023-05-02T23:00:18;457.52;;;428.50;;
53757;SDS011;39674;59.860;30.672;2023-05-02T23:56:25;424.35;;;398.17;;
